sensor_id;sensor_type;location;lat;lon;timestamp;P1;durP1;ratioP1;P2;durP2;ratioP2
68074;SDS011;54864;52.002;5.468;2023-04-16T00:00:45;11.48;;;4.63;;
68074;SDS011;54864;52.002;5.468;2023-04-16T00:01:47;17.25;;;4.80;;
68074;SDS011;54864;52.002;5.468;2023-04-16T00:02:48;9.88;;;4.05;;
68074;SDS011;54864;52.002;5.468;2023-04-16T00:03:49;13.90;;;4.15;;
68074;SDS011;54864;52.002;5.468;2023-04-16T00:04:50;12.83;;;4.40;;
68074;SDS011;54864;52.002;5.468;2023-04-16T00:05:52;12.75;;;4.68;;
68074;SDS011;54864;52.002;5.468;2023-04-16T00:06:56;15.57;;;4.40;;
68074;SDS011;54864;52.002;5.468;2023-04-16T00:07:57;13.25;;;4.25;;
68074;SDS011;54864;52.002;5.468;2023-04-16T00:08:58;12.23;;;4.00;;
68074;SDS011;54864;52.002;5.468;2023-04-16T00:10:01;12.88;;;4.63;;
68074;SDS011;54864;52.002;5.468;2023-04-16T00:11:02;13.48;;;4.40;;
68074;SDS011;54864;52.002;5.468;2023-04-16T00:12:04;10.65;;;4.15;;
68074;SDS011;54864;52.002;5.468;2023-04-16T00:13:05;12.93;;;4.50;;
68074;SDS011;54864;52.002;5.468;2023-04-16T00:14:07;14.43;;;4.30;;
68074;SDS011;54864;52.002;5.468;2023-04-16T00:15:08;10.55;;;4.25;;
68074;SDS011;54864;52.002;5.468;2023-04-16T00:16:10;16.05;;;4.70;;
68074;SDS011;54864;52.002;5.468;2023-04-16T00:17:11;13.45;;;4.65;;
68074;SDS011;54864;52.002;5.468;2023-04-16T00:18:12;13.68;;;4.90;;
68074;SDS011;54864;52.002;5.468;2023-04-16T00:19:13;13.35;;;5.00;;
68074;SDS011;54864;52.002;5.468;2023-04-16T00:20:15;12.95;;;4.72;;
68074;SDS011;54864;52.002;5.468;2023-04-16T00:21:16;15.25;;;4.57;;
68074;SDS011;54864;52.002;5.468;2023-04-16T00:22:18;13.85;;;4.72;;
68074;SDS011;54864;52.002;5.468;2023-04-16T00:23:19;11.73;;;4.10;;
68074;SDS011;54864;52.002;5.468;2023-04-16T00:24:21;10.45;;;4.47;;
68074;SDS011;54864;52.002;5.468;2023-04-16T00:25:24;12.02;;;4.35;;
68074;SDS011;54864;52.002;5.468;2023-04-16T00:26:25;14.00;;;4.25;;
68074;SDS011;54864;52.002;5.468;2023-04-16T00:27:26;11.67;;;3.90;;
68074;SDS011;54864;52.002;5.468;2023-04-16T00:28:30;11.48;;;4.47;;
68074;SDS011;54864;52.002;5.468;2023-04-16T00:29:31;13.68;;;4.80;;
68074;SDS011;54864;52.002;5.468;2023-04-16T00:30:36;15.68;;;5.45;;
68074;SDS011;54864;52.002;5.468;2023-04-16T00:31:37;12.88;;;4.30;;
68074;SDS011;54864;52.002;5.468;2023-04-16T00:32:39;8.98;;;4.28;;
68074;SDS011;54864;52.002;5.468;2023-04-16T00:33:40;10.07;;;4.50;;
68074;SDS011;54864;52.002;5.468;2023-04-16T00:34:41;13.57;;;4.47;;
68074;SDS011;54864;52.002;5.468;2023-04-16T00:35:43;12.18;;;4.25;;
68074;SDS011;54864;52.002;5.468;2023-04-16T00:36:46;11.57;;;4.22;;
68074;SDS011;54864;52.002;5.468;2023-04-16T00:37:46;10.98;;;3.70;;
68074;SDS011;54864;52.002;5.468;2023-04-16T00:38:48;12.30;;;4.43;;
68074;SDS011;54864;52.002;5.468;2023-04-16T00:39:49;11.33;;;4.37;;
68074;SDS011;54864;52.002;5.468;2023-04-16T00:40:53;10.98;;;4.03;;
68074;SDS011;54864;52.002;5.468;2023-04-16T00:41:53;10.32;;;4.43;;
68074;SDS011;54864;52.002;5.468;2023-04-16T00:42:55;10.50;;;4.00;;
68074;SDS011;54864;52.002;5.468;2023-04-16T00:43:56;15.70;;;4.50;;
68074;SDS011;54864;52.002;5.468;2023-04-16T00:44:57;16.05;;;5.18;;
68074;SDS011;54864;52.002;5.468;2023-04-16T00:46:00;10.73;;;4.00;;
68074;SDS011;54864;52.002;5.468;2023-04-16T00:47:05;14.23;;;4.90;;
68074;SDS011;54864;52.002;5.468;2023-04-16T00:48:06;13.38;;;4.57;;
68074;SDS011;54864;52.002;5.468;2023-04-16T00:49:08;14.20;;;4.63;;
68074;SDS011;54864;52.002;5.468;2023-04-16T00:50:09;15.02;;;5.22;;
68074;SDS011;54864;52.002;5.468;2023-04-16T00:51:12;10.23;;;3.60;;
68074;SDS011;54864;52.002;5.468;2023-04-16T00:52:13;11.00;;;4.27;;
68074;SDS011;54864;52.002;5.468;2023-04-16T00:53:17;14.10;;;5.17;;
68074;SDS011;54864;52.002;5.468;2023-04-16T00:54:18;12.85;;;4.50;;
68074;SDS011;54864;52.002;5.468;2023-04-16T00:55:20;10.25;;;4.13;;
68074;SDS011;54864;52.002;5.468;2023-04-16T00:56:22;12.23;;;4.82;;
68074;SDS011;54864;52.002;5.468;2023-04-16T00:57:25;11.23;;;4.47;;
68074;SDS011;54864;52.002;5.468;2023-04-16T00:58:30;13.73;;;4.53;;
68074;SDS011;54864;52.002;5.468;2023-04-16T00:59:31;9.00;;;4.13;;
68074;SDS011;54864;52.002;5.468;2023-04-16T01:00:32;14.73;;;4.18;;
68074;SDS011;54864;52.002;5.468;2023-04-16T01:01:34;9.88;;;4.25;;
68074;SDS011;54864;52.002;5.468;2023-04-16T01:02:35;9.73;;;3.77;;
68074;SDS011;54864;52.002;5.468;2023-04-16T01:03:37;15.85;;;4.80;;
68074;SDS011;54864;52.002;5.468;2023-04-16T01:04:40;7.82;;;3.92;;
68074;SDS011;54864;52.002;5.468;2023-04-16T01:05:42;10.85;;;4.05;;
68074;SDS011;54864;52.002;5.468;2023-04-16T01:06:43;11.00;;;3.60;;
68074;SDS011;54864;52.002;5.468;2023-04-16T01:07:44;8.73;;;4.13;;
68074;SDS011;54864;52.002;5.468;2023-04-16T01:08:45;8.18;;;4.07;;
68074;SDS011;54864;52.002;5.468;2023-04-16T01:09:47;9.27;;;3.78;;
68074;SDS011;54864;52.002;5.468;2023-04-16T01:10:48;8.87;;;3.70;;
68074;SDS011;54864;52.002;5.468;2023-04-16T01:11:51;11.93;;;4.40;;
68074;SDS011;54864;52.002;5.468;2023-04-16T01:12:51;11.55;;;4.15;;
68074;SDS011;54864;52.002;5.468;2023-04-16T01:13:53;9.48;;;3.92;;
68074;SDS011;54864;52.002;5.468;2023-04-16T01:14:54;13.25;;;4.82;;
68074;SDS011;54864;52.002;5.468;2023-04-16T01:15:56;12.77;;;4.37;;
68074;SDS011;54864;52.002;5.468;2023-04-16T01:16:56;10.87;;;4.50;;
68074;SDS011;54864;52.002;5.468;2023-04-16T01:17:58;12.25;;;4.45;;
68074;SDS011;54864;52.002;5.468;2023-04-16T01:18:59;10.88;;;4.38;;
68074;SDS011;54864;52.002;5.468;2023-04-16T01:20:00;15.13;;;4.57;;
68074;SDS011;54864;52.002;5.468;2023-04-16T01:21:03;15.82;;;5.18;;
68074;SDS011;54864;52.002;5.468;2023-04-16T01:22:05;13.80;;;4.97;;
68074;SDS011;54864;52.002;5.468;2023-04-16T01:23:06;14.85;;;5.20;;
68074;SDS011;54864;52.002;5.468;2023-04-16T01:24:07;13.40;;;4.75;;
68074;SDS011;54864;52.002;5.468;2023-04-16T01:25:12;12.18;;;4.97;;
68074;SDS011;54864;52.002;5.468;2023-04-16T01:26:15;14.35;;;5.20;;
68074;SDS011;54864;52.002;5.468;2023-04-16T01:27:15;13.33;;;5.50;;
68074;SDS011;54864;52.002;5.468;2023-04-16T01:28:18;13.73;;;4.63;;
68074;SDS011;54864;52.002;5.468;2023-04-16T01:29:18;11.57;;;4.73;;
68074;SDS011;54864;52.002;5.468;2023-04-16T01:30:20;12.18;;;4.68;;
68074;SDS011;54864;52.002;5.468;2023-04-16T01:31:21;13.20;;;5.50;;
68074;SDS011;54864;52.002;5.468;2023-04-16T01:32:22;13.23;;;5.13;;
68074;SDS011;54864;52.002;5.468;2023-04-16T01:33:23;16.35;;;5.82;;
68074;SDS011;54864;52.002;5.468;2023-04-16T01:34:25;11.32;;;5.53;;
68074;SDS011;54864;52.002;5.468;2023-04-16T01:35:25;15.15;;;5.57;;
68074;SDS011;54864;52.002;5.468;2023-04-16T01:36:28;15.27;;;5.72;;
68074;SDS011;54864;52.002;5.468;2023-04-16T01:37:29;18.30;;;6.22;;
68074;SDS011;54864;52.002;5.468;2023-04-16T01:38:31;19.30;;;6.50;;
68074;SDS011;54864;52.002;5.468;2023-04-16T01:39:32;13.40;;;6.10;;
68074;SDS011;54864;52.002;5.468;2023-04-16T01:40:34;15.88;;;6.03;;
68074;SDS011;54864;52.002;5.468;2023-04-16T01:41:36;14.30;;;6.32;;
68074;SDS011;54864;52.002;5.468;2023-04-16T01:42:37;14.18;;;6.00;;
68074;SDS011;54864;52.002;5.468;2023-04-16T01:43:38;16.33;;;6.00;;
68074;SDS011;54864;52.002;5.468;2023-04-16T01:44:41;15.60;;;6.60;;
68074;SDS011;54864;52.002;5.468;2023-04-16T01:45:42;17.85;;;6.35;;
68074;SDS011;54864;52.002;5.468;2023-04-16T01:46:43;18.90;;;6.15;;
68074;SDS011;54864;52.002;5.468;2023-04-16T01:47:44;20.13;;;6.37;;
68074;SDS011;54864;52.002;5.468;2023-04-16T01:48:46;14.68;;;5.60;;
68074;SDS011;54864;52.002;5.468;2023-04-16T01:49:47;14.23;;;5.47;;
68074;SDS011;54864;52.002;5.468;2023-04-16T01:50:49;16.52;;;6.22;;
68074;SDS011;54864;52.002;5.468;2023-04-16T01:51:51;17.55;;;6.07;;
68074;SDS011;54864;52.002;5.468;2023-04-16T01:52:53;16.50;;;6.43;;
68074;SDS011;54864;52.002;5.468;2023-04-16T01:53:54;11.40;;;5.65;;
68074;SDS011;54864;52.002;5.468;2023-04-16T01:54:57;15.07;;;5.97;;
68074;SDS011;54864;52.002;5.468;2023-04-16T01:55:58;14.80;;;6.72;;
68074;SDS011;54864;52.002;5.468;2023-04-16T01:56:59;15.63;;;6.27;;
68074;SDS011;54864;52.002;5.468;2023-04-16T01:58:00;19.23;;;6.93;;
68074;SDS011;54864;52.002;5.468;2023-04-16T01:59:02;14.18;;;6.75;;
68074;SDS011;54864;52.002;5.468;2023-04-16T02:00:06;15.65;;;6.78;;
68074;SDS011;54864;52.002;5.468;2023-04-16T02:01:08;18.40;;;7.70;;
68074;SDS011;54864;52.002;5.468;2023-04-16T02:02:10;17.07;;;7.27;;
68074;SDS011;54864;52.002;5.468;2023-04-16T02:03:12;12.88;;;6.63;;
68074;SDS011;54864;52.002;5.468;2023-04-16T02:04:16;14.30;;;6.72;;
68074;SDS011;54864;52.002;5.468;2023-04-16T02:05:18;17.70;;;7.05;;
68074;SDS011;54864;52.002;5.468;2023-04-16T02:06:18;17.30;;;7.38;;
68074;SDS011;54864;52.002;5.468;2023-04-16T02:07:22;23.50;;;8.38;;
68074;SDS011;54864;52.002;5.468;2023-04-16T02:08:23;18.63;;;7.50;;
68074;SDS011;54864;52.002;5.468;2023-04-16T02:09:25;21.55;;;8.68;;
68074;SDS011;54864;52.002;5.468;2023-04-16T02:10:28;18.30;;;7.85;;
68074;SDS011;54864;52.002;5.468;2023-04-16T02:11:29;19.73;;;7.40;;
68074;SDS011;54864;52.002;5.468;2023-04-16T02:12:30;18.60;;;7.80;;
68074;SDS011;54864;52.002;5.468;2023-04-16T02:13:31;17.58;;;8.18;;
68074;SDS011;54864;52.002;5.468;2023-04-16T02:14:32;18.95;;;8.32;;
68074;SDS011;54864;52.002;5.468;2023-04-16T02:15:34;21.35;;;9.18;;
68074;SDS011;54864;52.002;5.468;2023-04-16T02:16:35;19.03;;;7.50;;
68074;SDS011;54864;52.002;5.468;2023-04-16T02:17:36;20.10;;;8.13;;
68074;SDS011;54864;52.002;5.468;2023-04-16T02:18:37;17.65;;;8.27;;
68074;SDS011;54864;52.002;5.468;2023-04-16T02:19:44;21.17;;;9.15;;
68074;SDS011;54864;52.002;5.468;2023-04-16T02:20:45;21.30;;;8.80;;
68074;SDS011;54864;52.002;5.468;2023-04-16T02:21:50;25.15;;;8.93;;
68074;SDS011;54864;52.002;5.468;2023-04-16T02:22:52;18.90;;;8.90;;
68074;SDS011;54864;52.002;5.468;2023-04-16T02:23:53;24.48;;;9.50;;
68074;SDS011;54864;52.002;5.468;2023-04-16T02:24:54;23.77;;;9.88;;
68074;SDS011;54864;52.002;5.468;2023-04-16T02:25:56;21.98;;;9.60;;
68074;SDS011;54864;52.002;5.468;2023-04-16T02:26:58;24.70;;;10.00;;
68074;SDS011;54864;52.002;5.468;2023-04-16T02:27:58;27.73;;;9.90;;
68074;SDS011;54864;52.002;5.468;2023-04-16T02:29:00;23.02;;;9.93;;
68074;SDS011;54864;52.002;5.468;2023-04-16T02:30:01;25.33;;;10.53;;
68074;SDS011;54864;52.002;5.468;2023-04-16T02:31:03;27.55;;;10.38;;
68074;SDS011;54864;52.002;5.468;2023-04-16T02:32:04;24.95;;;9.68;;
68074;SDS011;54864;52.002;5.468;2023-04-16T02:33:07;27.73;;;10.32;;
68074;SDS011;54864;52.002;5.468;2023-04-16T02:34:09;22.95;;;10.00;;
68074;SDS011;54864;52.002;5.468;2023-04-16T02:35:11;28.23;;;10.70;;
68074;SDS011;54864;52.002;5.468;2023-04-16T02:36:12;28.00;;;10.73;;
68074;SDS011;54864;52.002;5.468;2023-04-16T02:37:13;26.23;;;10.52;;
68074;SDS011;54864;52.002;5.468;2023-04-16T02:38:16;24.55;;;10.52;;
68074;SDS011;54864;52.002;5.468;2023-04-16T02:39:18;25.23;;;10.52;;
68074;SDS011;54864;52.002;5.468;2023-04-16T02:40:19;29.60;;;10.65;;
68074;SDS011;54864;52.002;5.468;2023-04-16T02:41:20;29.58;;;11.02;;
68074;SDS011;54864;52.002;5.468;2023-04-16T02:42:21;27.23;;;11.30;;
68074;SDS011;54864;52.002;5.468;2023-04-16T02:43:23;33.65;;;12.60;;
68074;SDS011;54864;52.002;5.468;2023-04-16T02:44:23;26.20;;;10.90;;
68074;SDS011;54864;52.002;5.468;2023-04-16T02:45:26;33.70;;;12.35;;
68074;SDS011;54864;52.002;5.468;2023-04-16T02:46:27;26.13;;;12.15;;
68074;SDS011;54864;52.002;5.468;2023-04-16T02:47:28;27.10;;;11.65;;
68074;SDS011;54864;52.002;5.468;2023-04-16T02:48:29;28.27;;;12.10;;
68074;SDS011;54864;52.002;5.468;2023-04-16T02:49:32;28.73;;;11.82;;
68074;SDS011;54864;52.002;5.468;2023-04-16T02:50:33;36.17;;;13.35;;
68074;SDS011;54864;52.002;5.468;2023-04-16T02:51:35;28.73;;;11.80;;
68074;SDS011;54864;52.002;5.468;2023-04-16T02:52:35;29.83;;;13.10;;
68074;SDS011;54864;52.002;5.468;2023-04-16T02:53:39;23.77;;;12.07;;
68074;SDS011;54864;52.002;5.468;2023-04-16T02:54:44;32.15;;;13.30;;
68074;SDS011;54864;52.002;5.468;2023-04-16T02:55:48;29.48;;;12.40;;
68074;SDS011;54864;52.002;5.468;2023-04-16T02:56:51;30.77;;;12.35;;
68074;SDS011;54864;52.002;5.468;2023-04-16T02:57:52;26.02;;;12.38;;
68074;SDS011;54864;52.002;5.468;2023-04-16T02:58:56;28.50;;;12.83;;
68074;SDS011;54864;52.002;5.468;2023-04-16T02:59:57;29.77;;;11.65;;
68074;SDS011;54864;52.002;5.468;2023-04-16T03:00:59;24.52;;;12.18;;
68074;SDS011;54864;52.002;5.468;2023-04-16T03:01:59;29.30;;;12.27;;
68074;SDS011;54864;52.002;5.468;2023-04-16T03:03:01;28.00;;;12.20;;
68074;SDS011;54864;52.002;5.468;2023-04-16T03:04:02;29.92;;;12.38;;
68074;SDS011;54864;52.002;5.468;2023-04-16T03:05:04;26.50;;;12.48;;
68074;SDS011;54864;52.002;5.468;2023-04-16T03:06:05;28.90;;;12.50;;
68074;SDS011;54864;52.002;5.468;2023-04-16T03:07:07;28.45;;;13.25;;
68074;SDS011;54864;52.002;5.468;2023-04-16T03:08:08;29.80;;;13.15;;
68074;SDS011;54864;52.002;5.468;2023-04-16T03:09:12;26.80;;;12.93;;
68074;SDS011;54864;52.002;5.468;2023-04-16T03:10:15;31.52;;;13.18;;
68074;SDS011;54864;52.002;5.468;2023-04-16T03:11:17;30.60;;;12.25;;
68074;SDS011;54864;52.002;5.468;2023-04-16T03:12:18;29.42;;;13.63;;
68074;SDS011;54864;52.002;5.468;2023-04-16T03:13:20;22.63;;;11.75;;
68074;SDS011;54864;52.002;5.468;2023-04-16T03:14:21;27.77;;;13.32;;
68074;SDS011;54864;52.002;5.468;2023-04-16T03:15:23;26.20;;;11.77;;
68074;SDS011;54864;52.002;5.468;2023-04-16T03:16:24;26.20;;;11.90;;
68074;SDS011;54864;52.002;5.468;2023-04-16T03:17:26;27.05;;;12.18;;
68074;SDS011;54864;52.002;5.468;2023-04-16T03:18:27;26.23;;;12.32;;
68074;SDS011;54864;52.002;5.468;2023-04-16T03:19:28;26.98;;;12.65;;
68074;SDS011;54864;52.002;5.468;2023-04-16T03:20:29;30.80;;;14.03;;
68074;SDS011;54864;52.002;5.468;2023-04-16T03:21:31;33.65;;;12.98;;
68074;SDS011;54864;52.002;5.468;2023-04-16T03:22:32;25.52;;;12.23;;
68074;SDS011;54864;52.002;5.468;2023-04-16T03:23:34;34.53;;;13.02;;
68074;SDS011;54864;52.002;5.468;2023-04-16T03:24:36;29.17;;;13.32;;
68074;SDS011;54864;52.002;5.468;2023-04-16T03:25:41;28.23;;;13.18;;
68074;SDS011;54864;52.002;5.468;2023-04-16T03:26:45;25.33;;;12.25;;
68074;SDS011;54864;52.002;5.468;2023-04-16T03:27:47;25.17;;;13.65;;
68074;SDS011;54864;52.002;5.468;2023-04-16T03:28:48;28.73;;;13.13;;
68074;SDS011;54864;52.002;5.468;2023-04-16T03:29:49;33.33;;;13.25;;
68074;SDS011;54864;52.002;5.468;2023-04-16T03:30:50;31.17;;;13.63;;
68074;SDS011;54864;52.002;5.468;2023-04-16T03:31:52;32.15;;;13.57;;
68074;SDS011;54864;52.002;5.468;2023-04-16T03:32:53;32.33;;;14.20;;
68074;SDS011;54864;52.002;5.468;2023-04-16T03:33:54;36.90;;;14.13;;
68074;SDS011;54864;52.002;5.468;2023-04-16T03:34:55;29.50;;;14.30;;
68074;SDS011;54864;52.002;5.468;2023-04-16T03:35:57;28.17;;;14.30;;
68074;SDS011;54864;52.002;5.468;2023-04-16T03:36:58;27.13;;;14.35;;
68074;SDS011;54864;52.002;5.468;2023-04-16T03:38:02;28.35;;;14.25;;
68074;SDS011;54864;52.002;5.468;2023-04-16T03:39:02;33.85;;;14.35;;
68074;SDS011;54864;52.002;5.468;2023-04-16T03:40:06;31.08;;;14.20;;
68074;SDS011;54864;52.002;5.468;2023-04-16T03:41:07;30.27;;;15.27;;
68074;SDS011;54864;52.002;5.468;2023-04-16T03:42:09;34.13;;;15.70;;
68074;SDS011;54864;52.002;5.468;2023-04-16T03:43:12;35.73;;;15.93;;
68074;SDS011;54864;52.002;5.468;2023-04-16T03:44:25;29.73;;;15.40;;
68074;SDS011;54864;52.002;5.468;2023-04-16T03:45:25;32.22;;;14.35;;
68074;SDS011;54864;52.002;5.468;2023-04-16T03:46:27;40.05;;;16.23;;
68074;SDS011;54864;52.002;5.468;2023-04-16T03:47:28;38.30;;;15.55;;
68074;SDS011;54864;52.002;5.468;2023-04-16T03:48:30;34.20;;;15.68;;
68074;SDS011;54864;52.002;5.468;2023-04-16T03:49:31;25.98;;;14.30;;
68074;SDS011;54864;52.002;5.468;2023-04-16T03:50:32;32.30;;;15.30;;
68074;SDS011;54864;52.002;5.468;2023-04-16T03:51:33;33.08;;;15.60;;
68074;SDS011;54864;52.002;5.468;2023-04-16T03:52:35;31.17;;;15.20;;
68074;SDS011;54864;52.002;5.468;2023-04-16T03:53:35;28.85;;;14.32;;
68074;SDS011;54864;52.002;5.468;2023-04-16T03:54:37;31.48;;;15.23;;
68074;SDS011;54864;52.002;5.468;2023-04-16T03:55:39;32.03;;;14.70;;
68074;SDS011;54864;52.002;5.468;2023-04-16T03:56:41;29.70;;;14.57;;
68074;SDS011;54864;52.002;5.468;2023-04-16T03:57:42;33.10;;;14.73;;
68074;SDS011;54864;52.002;5.468;2023-04-16T03:58:44;31.50;;;14.48;;
68074;SDS011;54864;52.002;5.468;2023-04-16T03:59:44;28.50;;;14.63;;
68074;SDS011;54864;52.002;5.468;2023-04-16T04:00:47;31.13;;;13.77;;
68074;SDS011;54864;52.002;5.468;2023-04-16T04:01:47;30.75;;;15.38;;
68074;SDS011;54864;52.002;5.468;2023-04-16T04:02:49;33.88;;;14.30;;
68074;SDS011;54864;52.002;5.468;2023-04-16T04:03:50;31.40;;;13.93;;
68074;SDS011;54864;52.002;5.468;2023-04-16T04:04:52;32.13;;;14.13;;
68074;SDS011;54864;52.002;5.468;2023-04-16T04:05:53;30.95;;;14.35;;
68074;SDS011;54864;52.002;5.468;2023-04-16T04:06:54;30.65;;;14.48;;
68074;SDS011;54864;52.002;5.468;2023-04-16T04:07:55;25.48;;;12.77;;
68074;SDS011;54864;52.002;5.468;2023-04-16T04:08:57;28.63;;;12.88;;
68074;SDS011;54864;52.002;5.468;2023-04-16T04:10:00;27.75;;;14.13;;
68074;SDS011;54864;52.002;5.468;2023-04-16T04:11:03;32.75;;;14.82;;
68074;SDS011;54864;52.002;5.468;2023-04-16T04:12:04;33.63;;;14.20;;
68074;SDS011;54864;52.002;5.468;2023-04-16T04:13:06;25.50;;;13.07;;
68074;SDS011;54864;52.002;5.468;2023-04-16T04:14:06;29.47;;;13.37;;
68074;SDS011;54864;52.002;5.468;2023-04-16T04:15:09;29.20;;;13.77;;
68074;SDS011;54864;52.002;5.468;2023-04-16T04:16:10;33.90;;;13.93;;
68074;SDS011;54864;52.002;5.468;2023-04-16T04:17:12;31.05;;;13.82;;
68074;SDS011;54864;52.002;5.468;2023-04-16T04:18:13;32.00;;;14.27;;
68074;SDS011;54864;52.002;5.468;2023-04-16T04:19:15;29.10;;;13.33;;
68074;SDS011;54864;52.002;5.468;2023-04-16T04:20:16;27.95;;;12.95;;
68074;SDS011;54864;52.002;5.468;2023-04-16T04:21:18;31.52;;;14.07;;
68074;SDS011;54864;52.002;5.468;2023-04-16T04:22:19;29.30;;;13.43;;
68074;SDS011;54864;52.002;5.468;2023-04-16T04:23:20;26.25;;;13.85;;
68074;SDS011;54864;52.002;5.468;2023-04-16T04:24:21;25.67;;;13.70;;
68074;SDS011;54864;52.002;5.468;2023-04-16T04:25:23;29.15;;;14.70;;
68074;SDS011;54864;52.002;5.468;2023-04-16T04:26:25;32.72;;;14.25;;
68074;SDS011;54864;52.002;5.468;2023-04-16T04:27:27;29.38;;;13.82;;
68074;SDS011;54864;52.002;5.468;2023-04-16T04:28:28;28.02;;;14.35;;
68074;SDS011;54864;52.002;5.468;2023-04-16T04:29:30;31.05;;;16.45;;
68074;SDS011;54864;52.002;5.468;2023-04-16T04:30:30;28.97;;;14.57;;
68074;SDS011;54864;52.002;5.468;2023-04-16T04:31:32;36.00;;;15.00;;
68074;SDS011;54864;52.002;5.468;2023-04-16T04:32:33;32.00;;;15.15;;
68074;SDS011;54864;52.002;5.468;2023-04-16T04:33:35;31.55;;;13.85;;
68074;SDS011;54864;52.002;5.468;2023-04-16T04:34:35;34.73;;;14.90;;
68074;SDS011;54864;52.002;5.468;2023-04-16T04:35:37;26.73;;;14.63;;
68074;SDS011;54864;52.002;5.468;2023-04-16T04:36:38;28.65;;;14.23;;
68074;SDS011;54864;52.002;5.468;2023-04-16T04:37:40;34.63;;;15.27;;
68074;SDS011;54864;52.002;5.468;2023-04-16T04:38:40;32.13;;;14.17;;
68074;SDS011;54864;52.002;5.468;2023-04-16T04:39:42;32.03;;;14.65;;
68074;SDS011;54864;52.002;5.468;2023-04-16T04:40:43;33.97;;;15.77;;
68074;SDS011;54864;52.002;5.468;2023-04-16T04:41:46;34.05;;;16.08;;
68074;SDS011;54864;52.002;5.468;2023-04-16T04:42:47;33.90;;;14.70;;
68074;SDS011;54864;52.002;5.468;2023-04-16T04:43:49;33.40;;;15.70;;
68074;SDS011;54864;52.002;5.468;2023-04-16T04:44:52;33.63;;;15.68;;
68074;SDS011;54864;52.002;5.468;2023-04-16T04:45:54;31.52;;;16.83;;
68074;SDS011;54864;52.002;5.468;2023-04-16T04:46:55;36.45;;;15.68;;
68074;SDS011;54864;52.002;5.468;2023-04-16T04:47:57;33.95;;;16.20;;
68074;SDS011;54864;52.002;5.468;2023-04-16T04:48:58;32.30;;;16.33;;
68074;SDS011;54864;52.002;5.468;2023-04-16T04:49:59;32.15;;;16.40;;
68074;SDS011;54864;52.002;5.468;2023-04-16T04:51:00;34.33;;;15.60;;
68074;SDS011;54864;52.002;5.468;2023-04-16T04:52:03;33.67;;;16.15;;
68074;SDS011;54864;52.002;5.468;2023-04-16T04:53:05;33.35;;;16.30;;
68074;SDS011;54864;52.002;5.468;2023-04-16T04:54:09;33.85;;;15.35;;
68074;SDS011;54864;52.002;5.468;2023-04-16T04:55:10;30.00;;;15.43;;
68074;SDS011;54864;52.002;5.468;2023-04-16T04:56:13;34.17;;;15.30;;
68074;SDS011;54864;52.002;5.468;2023-04-16T04:57:15;30.02;;;15.15;;
68074;SDS011;54864;52.002;5.468;2023-04-16T04:58:17;33.33;;;14.85;;
68074;SDS011;54864;52.002;5.468;2023-04-16T04:59:18;37.78;;;15.27;;
68074;SDS011;54864;52.002;5.468;2023-04-16T05:00:20;33.80;;;15.07;;
68074;SDS011;54864;52.002;5.468;2023-04-16T05:01:21;35.70;;;15.17;;
68074;SDS011;54864;52.002;5.468;2023-04-16T05:02:22;33.38;;;15.45;;
68074;SDS011;54864;52.002;5.468;2023-04-16T05:03:24;32.90;;;16.15;;
68074;SDS011;54864;52.002;5.468;2023-04-16T05:04:26;34.53;;;16.48;;
68074;SDS011;54864;52.002;5.468;2023-04-16T05:05:26;36.20;;;16.73;;
68074;SDS011;54864;52.002;5.468;2023-04-16T05:06:28;38.75;;;16.95;;
68074;SDS011;54864;52.002;5.468;2023-04-16T05:07:29;36.60;;;16.33;;
68074;SDS011;54864;52.002;5.468;2023-04-16T05:08:30;35.65;;;16.63;;
68074;SDS011;54864;52.002;5.468;2023-04-16T05:09:31;36.15;;;17.50;;
68074;SDS011;54864;52.002;5.468;2023-04-16T05:10:36;36.17;;;16.45;;
68074;SDS011;54864;52.002;5.468;2023-04-16T05:11:37;38.20;;;17.00;;
68074;SDS011;54864;52.002;5.468;2023-04-16T05:12:43;37.05;;;16.38;;
68074;SDS011;54864;52.002;5.468;2023-04-16T05:13:46;34.58;;;16.25;;
68074;SDS011;54864;52.002;5.468;2023-04-16T05:14:47;36.25;;;17.60;;
68074;SDS011;54864;52.002;5.468;2023-04-16T05:15:48;36.80;;;16.77;;
68074;SDS011;54864;52.002;5.468;2023-04-16T05:16:50;37.20;;;16.17;;
68074;SDS011;54864;52.002;5.468;2023-04-16T05:17:53;41.85;;;17.08;;
68074;SDS011;54864;52.002;5.468;2023-04-16T05:18:55;36.70;;;17.10;;
68074;SDS011;54864;52.002;5.468;2023-04-16T05:19:57;36.10;;;16.10;;
68074;SDS011;54864;52.002;5.468;2023-04-16T05:20:58;38.55;;;16.15;;
68074;SDS011;54864;52.002;5.468;2023-04-16T05:21:59;38.88;;;16.52;;
68074;SDS011;54864;52.002;5.468;2023-04-16T05:23:01;31.27;;;15.40;;
68074;SDS011;54864;52.002;5.468;2023-04-16T05:24:03;32.37;;;16.03;;
68074;SDS011;54864;52.002;5.468;2023-04-16T05:25:05;33.38;;;15.55;;
68074;SDS011;54864;52.002;5.468;2023-04-16T05:26:08;46.10;;;16.05;;
68074;SDS011;54864;52.002;5.468;2023-04-16T05:27:09;34.33;;;15.90;;
68074;SDS011;54864;52.002;5.468;2023-04-16T05:28:12;36.37;;;15.50;;
68074;SDS011;54864;52.002;5.468;2023-04-16T05:29:13;39.08;;;16.42;;
68074;SDS011;54864;52.002;5.468;2023-04-16T05:30:14;31.52;;;14.88;;
68074;SDS011;54864;52.002;5.468;2023-04-16T05:31:16;31.45;;;14.85;;
68074;SDS011;54864;52.002;5.468;2023-04-16T05:32:16;35.20;;;15.70;;
68074;SDS011;54864;52.002;5.468;2023-04-16T05:33:18;36.97;;;16.70;;
68074;SDS011;54864;52.002;5.468;2023-04-16T05:34:19;34.65;;;16.35;;
68074;SDS011;54864;52.002;5.468;2023-04-16T05:35:20;40.35;;;16.77;;
68074;SDS011;54864;52.002;5.468;2023-04-16T05:36:21;36.45;;;17.60;;
68074;SDS011;54864;52.002;5.468;2023-04-16T05:37:23;38.47;;;17.25;;
68074;SDS011;54864;52.002;5.468;2023-04-16T05:38:24;37.47;;;17.95;;
68074;SDS011;54864;52.002;5.468;2023-04-16T05:39:25;39.70;;;17.45;;
68074;SDS011;54864;52.002;5.468;2023-04-16T05:40:26;39.63;;;16.40;;
68074;SDS011;54864;52.002;5.468;2023-04-16T05:41:28;36.47;;;16.88;;
68074;SDS011;54864;52.002;5.468;2023-04-16T05:42:29;31.27;;;16.60;;
68074;SDS011;54864;52.002;5.468;2023-04-16T05:43:32;34.95;;;17.95;;
68074;SDS011;54864;52.002;5.468;2023-04-16T05:44:33;33.50;;;16.30;;
68074;SDS011;54864;52.002;5.468;2023-04-16T05:45:34;43.33;;;17.67;;
68074;SDS011;54864;52.002;5.468;2023-04-16T05:46:40;39.00;;;17.27;;
68074;SDS011;54864;52.002;5.468;2023-04-16T05:47:42;34.63;;;16.55;;
68074;SDS011;54864;52.002;5.468;2023-04-16T05:48:43;36.30;;;17.00;;
68074;SDS011;54864;52.002;5.468;2023-04-16T05:49:45;40.20;;;17.05;;
68074;SDS011;54864;52.002;5.468;2023-04-16T05:50:45;36.03;;;17.75;;
68074;SDS011;54864;52.002;5.468;2023-04-16T05:51:47;37.20;;;16.10;;
68074;SDS011;54864;52.002;5.468;2023-04-16T05:52:48;31.33;;;16.13;;
68074;SDS011;54864;52.002;5.468;2023-04-16T05:53:50;36.53;;;16.23;;
68074;SDS011;54864;52.002;5.468;2023-04-16T05:54:50;36.45;;;16.55;;
68074;SDS011;54864;52.002;5.468;2023-04-16T05:55:52;38.10;;;16.08;;
68074;SDS011;54864;52.002;5.468;2023-04-16T05:56:53;33.53;;;16.47;;
68074;SDS011;54864;52.002;5.468;2023-04-16T05:57:55;35.63;;;16.35;;
68074;SDS011;54864;52.002;5.468;2023-04-16T05:58:57;31.40;;;15.63;;
68074;SDS011;54864;52.002;5.468;2023-04-16T05:59:59;31.02;;;15.50;;
68074;SDS011;54864;52.002;5.468;2023-04-16T06:01:00;33.45;;;16.02;;
68074;SDS011;54864;52.002;5.468;2023-04-16T06:02:02;33.80;;;17.65;;
68074;SDS011;54864;52.002;5.468;2023-04-16T06:03:03;31.70;;;16.17;;
68074;SDS011;54864;52.002;5.468;2023-04-16T06:04:04;38.75;;;15.82;;